createdAt,value
2023-02-19T00:01:46.891Z,4.97
2023-02-19T00:04:17.256Z,5.05
2023-02-19T00:06:45.845Z,4.82
2023-02-19T00:09:15.139Z,5.00
2023-02-19T00:11:43.082Z,5.00
2023-02-19T00:14:15.280Z,4.22
2023-02-19T00:16:43.136Z,4.18
2023-02-19T00:19:14.547Z,3.95
2023-02-19T00:21:42.339Z,4.55
2023-02-19T00:24:12.512Z,4.50
2023-02-19T00:26:41.435Z,5.20
2023-02-19T00:29:12.963Z,5.10
2023-02-19T00:31:40.541Z,4.68
2023-02-19T00:34:10.614Z,4.40
2023-02-19T00:36:40.609Z,5.53
2023-02-19T00:39:11.111Z,5.22
2023-02-19T00:41:38.524Z,4.85
2023-02-19T00:44:08.335Z,4.63
2023-02-19T00:46:38.645Z,4.80
2023-02-19T00:49:08.670Z,5.22
2023-02-19T00:51:38.294Z,5.47
2023-02-19T00:54:06.452Z,3.97
2023-02-19T00:56:34.110Z,4.40
2023-02-19T00:59:01.717Z,3.85
2023-02-19T01:01:29.151Z,2.78
2023-02-19T01:03:56.560Z,3.35
2023-02-19T01:06:24.575Z,3.78
2023-02-19T01:08:52.024Z,4.22
2023-02-19T01:11:20.375Z,3.75
2023-02-19T01:13:48.241Z,3.42
2023-02-19T01:16:23.922Z,3.28
2023-02-19T01:18:51.863Z,2.92
2023-02-19T01:21:24.993Z,2.20
2023-02-19T01:23:52.997Z,2.67
2023-02-19T01:26:23.475Z,2.00
2023-02-19T01:28:51.102Z,2.50
2023-02-19T01:31:22.537Z,2.28
2023-02-19T01:33:56.221Z,2.42
2023-02-19T01:36:24.252Z,2.58
2023-02-19T01:38:51.790Z,2.40
2023-02-19T01:41:22.722Z,2.88
2023-02-19T01:44:00.505Z,2.67
2023-02-19T01:46:35.638Z,2.50
2023-02-19T01:49:08.086Z,3.30
2023-02-19T01:51:39.248Z,3.03
2023-02-19T01:54:09.824Z,1.55
2023-02-19T01:56:40.468Z,2.45
2023-02-19T01:59:08.410Z,2.60
2023-02-19T02:01:38.693Z,2.25
2023-02-19T02:04:07.922Z,2.67
2023-02-19T02:06:44.836Z,2.65
2023-02-19T02:09:31.430Z,1.98
2023-02-19T02:11:59.104Z,1.67
2023-02-19T02:14:31.225Z,3.05
2023-02-19T02:17:17.900Z,2.15
2023-02-19T02:19:48.229Z,2.40
2023-02-19T02:22:31.475Z,1.80
2023-02-19T02:25:17.299Z,2.30
2023-02-19T02:28:15.082Z,2.13
2023-02-19T02:30:50.709Z,1.55
2023-02-19T02:33:22.319Z,2.05
2023-02-19T02:36:09.005Z,2.70
2023-02-19T02:38:42.750Z,2.25
2023-02-19T02:41:11.891Z,2.05
2023-02-19T02:43:40.086Z,2.25
2023-02-19T02:46:12.280Z,2.47
2023-02-19T02:48:55.423Z,2.40
2023-02-19T02:51:28.593Z,2.67
2023-02-19T02:54:44.608Z,2.22
2023-02-19T02:57:16.003Z,2.35
2023-02-19T02:59:49.188Z,2.10
2023-02-19T03:02:24.339Z,2.20
2023-02-19T03:05:24.939Z,2.03
2023-02-19T03:08:12.997Z,2.45
2023-02-19T03:10:45.887Z,2.00
2023-02-19T03:13:43.702Z,3.25
2023-02-19T03:16:38.257Z,2.65
2023-02-19T03:19:20.662Z,2.20
2023-02-19T03:22:01.226Z,2.58
2023-02-19T03:28:56.919Z,2.40
2023-02-19T03:31:27.103Z,1.52
2023-02-19T03:33:59.626Z,2.00
2023-02-19T03:41:22.263Z,2.47
2023-02-19T03:44:16.951Z,1.80
2023-02-19T03:47:03.734Z,2.30
2023-02-19T03:49:59.229Z,1.80
2023-02-19T03:52:56.259Z,2.92
2023-02-19T03:55:30.290Z,2.50
2023-02-19T03:58:24.869Z,1.95
2023-02-19T04:00:57.184Z,1.70
2023-02-19T04:03:29.594Z,3.05
2023-02-19T04:06:02.648Z,2.60
2023-02-19T04:08:34.276Z,2.00
2023-02-19T04:11:05.417Z,2.10
2023-02-19T04:13:50.902Z,1.95
2023-02-19T04:16:22.605Z,2.20
2023-02-19T04:18:52.969Z,2.03
2023-02-19T04:21:22.783Z,2.20
2023-02-19T04:23:50.225Z,2.70
2023-02-19T04:26:20.142Z,2.30
2023-02-19T04:28:47.659Z,2.50
2023-02-19T04:31:15.290Z,2.38
2023-02-19T04:33:42.737Z,2.53
2023-02-19T04:36:11.031Z,2.17
2023-02-19T04:38:38.621Z,2.92
2023-02-19T04:41:06.026Z,2.38
2023-02-19T04:43:33.408Z,2.38
2023-02-19T04:46:02.029Z,2.75
2023-02-19T04:48:29.646Z,2.08
2023-02-19T04:50:57.187Z,1.75
2023-02-19T04:53:24.797Z,2.40
2023-02-19T04:55:53.464Z,2.40
2023-02-19T04:58:21.333Z,2.22
2023-02-19T05:00:52.318Z,2.20
2023-02-19T05:03:19.793Z,2.33
2023-02-19T05:05:48.668Z,1.75
2023-02-19T05:08:16.107Z,2.22
2023-02-19T05:10:43.496Z,1.92
2023-02-19T05:13:10.947Z,2.15
2023-02-19T05:15:38.559Z,2.38
2023-02-19T05:18:06.040Z,1.60
2023-02-19T05:20:33.432Z,1.92
2023-02-19T05:23:00.770Z,1.10
2023-02-19T05:25:28.127Z,1.98
2023-02-19T05:28:15.426Z,2.08
2023-02-19T05:30:52.397Z,2.50
2023-02-19T05:33:21.827Z,2.60
2023-02-19T05:35:54.829Z,1.95
2023-02-19T05:38:23.103Z,1.73
2023-02-19T05:40:50.505Z,2.17
2023-02-19T05:43:18.195Z,1.65
2023-02-19T05:45:45.586Z,1.98
2023-02-19T05:48:12.992Z,2.10
2023-02-19T05:50:40.391Z,2.55
2023-02-19T05:53:13.351Z,2.70
2023-02-19T05:55:40.749Z,2.05
2023-02-19T05:58:08.130Z,1.73
2023-02-19T06:00:35.577Z,1.65
2023-02-19T06:03:04.209Z,2.72
2023-02-19T06:05:31.602Z,2.42
2023-02-19T06:07:58.981Z,1.88
2023-02-19T06:10:28.267Z,2.03
2023-02-19T06:12:55.626Z,2.65
2023-02-19T06:15:23.062Z,2.70
2023-02-19T06:17:50.477Z,2.85
2023-02-19T06:20:18.073Z,2.55
2023-02-19T06:22:45.402Z,2.67
2023-02-19T06:25:12.818Z,2.38
2023-02-19T06:27:40.249Z,2.55
2023-02-19T06:30:08.881Z,1.88
2023-02-19T06:32:36.309Z,3.00
2023-02-19T06:35:04.281Z,2.35
2023-02-19T06:37:31.713Z,2.65
2023-02-19T06:39:59.141Z,2.47
2023-02-19T06:42:26.517Z,3.22
2023-02-19T06:44:53.961Z,3.10
2023-02-19T06:47:22.831Z,2.85
2023-02-19T06:49:51.118Z,2.60
2023-02-19T06:52:18.422Z,2.20
2023-02-19T06:54:45.797Z,2.75
2023-02-19T06:57:13.189Z,2.72
2023-02-19T06:59:40.555Z,2.90
2023-02-19T07:02:11.341Z,2.60
2023-02-19T07:04:38.841Z,2.50
2023-02-19T07:07:06.233Z,2.72
2023-02-19T07:09:33.611Z,1.70
2023-02-19T07:12:00.966Z,2.88
2023-02-19T07:14:29.697Z,2.17
2023-02-19T07:16:57.102Z,3.25
2023-02-19T07:19:24.501Z,3.03
2023-02-19T07:21:51.861Z,2.88
2023-02-19T07:24:21.896Z,2.88
2023-02-19T07:26:49.282Z,3.00
2023-02-19T07:29:16.715Z,2.72
2023-02-19T07:31:44.444Z,3.00
2023-02-19T07:34:11.918Z,3.58
2023-02-19T07:36:39.361Z,2.70
2023-02-19T07:39:08.600Z,3.10
2023-02-19T07:41:37.333Z,2.90
2023-02-19T07:44:06.680Z,2.80
2023-02-19T07:46:34.070Z,2.67
2023-02-19T07:49:01.590Z,3.53
2023-02-19T07:51:28.924Z,2.55
2023-02-19T07:53:56.289Z,2.65
2023-02-19T07:56:23.710Z,2.10
2023-02-19T07:58:51.253Z,2.17
2023-02-19T08:01:44.191Z,2.97
2023-02-19T08:04:13.715Z,2.65
2023-02-19T08:06:42.048Z,2.83
2023-02-19T08:09:09.574Z,2.05
2023-02-19T08:11:55.396Z,2.25
2023-02-19T08:14:27.603Z,2.53
2023-02-19T08:16:55.497Z,2.78
2023-02-19T08:19:23.417Z,2.63
2023-02-19T08:21:50.745Z,2.33
2023-02-19T08:24:18.162Z,2.80
2023-02-19T08:26:45.606Z,2.80
2023-02-19T08:29:13.045Z,2.70
2023-02-19T08:31:40.488Z,2.53
2023-02-19T08:34:07.916Z,3.55
2023-02-19T08:36:35.333Z,2.90
2023-02-19T08:39:02.730Z,2.05
2023-02-19T08:41:30.140Z,3.25
2023-02-19T08:43:57.591Z,2.70
2023-02-19T08:46:25.340Z,3.22
2023-02-19T08:48:52.802Z,3.53
2023-02-19T08:51:20.287Z,3.30
2023-02-19T08:53:47.827Z,3.47
2023-02-19T08:56:16.354Z,3.78
2023-02-19T08:58:44.504Z,3.80
2023-02-19T09:01:14.775Z,3.45
2023-02-19T09:03:42.724Z,3.30
2023-02-19T09:06:16.250Z,2.90
2023-02-19T09:08:43.817Z,3.88
2023-02-19T09:11:11.500Z,2.67
2023-02-19T09:13:39.050Z,2.97
2023-02-19T09:16:06.868Z,4.18
2023-02-19T09:18:34.785Z,3.47
2023-02-19T09:21:04.738Z,2.42
2023-02-19T09:23:36.913Z,3.85
2023-02-19T09:26:08.695Z,3.95
2023-02-19T09:28:36.570Z,3.13
2023-02-19T09:31:06.138Z,2.20
2023-02-19T09:33:34.262Z,2.90
2023-02-19T09:36:02.158Z,2.75
2023-02-19T09:38:30.908Z,2.50
2023-02-19T09:40:59.736Z,3.45
2023-02-19T09:43:29.406Z,3.35
2023-02-19T09:46:10.192Z,2.50
2023-02-19T09:48:37.843Z,3.58
2023-02-19T09:51:07.289Z,2.92
2023-02-19T09:53:41.963Z,2.80
2023-02-19T09:58:48.295Z,2.70
2023-02-19T10:01:16.168Z,2.97
2023-02-19T10:03:48.711Z,3.00
2023-02-19T10:06:25.968Z,3.17
2023-02-19T10:09:00.002Z,2.80
2023-02-19T10:11:27.791Z,1.52
2023-02-19T10:14:12.656Z,3.10
2023-02-19T10:16:42.276Z,2.90
2023-02-19T10:19:11.901Z,2.47
2023-02-19T10:21:39.989Z,3.03
2023-02-19T10:24:08.455Z,2.60
2023-02-19T10:26:36.867Z,2.90
2023-02-19T10:29:05.126Z,2.42
2023-02-19T10:31:33.759Z,2.60
2023-02-19T10:34:02.178Z,2.53
2023-02-19T10:36:40.458Z,3.10
2023-02-19T10:39:22.356Z,2.67
2023-02-19T10:41:51.022Z,1.75
2023-02-19T10:44:46.083Z,2.00
2023-02-19T10:47:21.640Z,2.05
2023-02-19T10:49:50.896Z,1.63
2023-02-19T10:52:24.323Z,1.23
2023-02-19T10:54:56.254Z,1.63
2023-02-19T10:57:30.591Z,2.47
2023-02-19T11:00:13.487Z,1.83
2023-02-19T11:02:42.027Z,1.25
2023-02-19T11:05:09.542Z,2.00
2023-02-19T11:07:39.369Z,1.65
2023-02-19T11:10:07.331Z,1.67
2023-02-19T11:12:35.428Z,1.48
2023-02-19T11:15:25.227Z,1.80
2023-02-19T11:18:26.543Z,1.80
2023-02-19T11:21:01.028Z,1.58
2023-02-19T11:23:30.123Z,1.67
2023-02-19T11:26:01.624Z,1.30
2023-02-19T11:28:39.670Z,1.17
2023-02-19T11:31:20.631Z,2.25
2023-02-19T11:33:54.640Z,1.70
2023-02-19T11:36:37.654Z,1.50
2023-02-19T11:39:21.928Z,1.52
2023-02-19T11:42:01.320Z,1.70
2023-02-19T11:44:56.487Z,1.30
2023-02-19T11:48:06.220Z,1.58
2023-02-19T11:51:05.678Z,1.42
2023-02-19T11:53:37.272Z,1.10
2023-02-19T11:56:20.838Z,1.30
2023-02-19T11:59:00.853Z,1.60
2023-02-19T12:01:54.322Z,0.90
2023-02-19T12:05:02.605Z,0.90
2023-02-19T12:07:59.832Z,1.15
2023-02-19T12:11:05.998Z,1.13
2023-02-19T12:14:15.556Z,1.35
2023-02-19T12:17:05.439Z,1.30
2023-02-19T12:20:14.167Z,1.20
2023-02-19T12:23:20.307Z,1.70
2023-02-19T12:25:52.469Z,1.40
2023-02-19T12:28:58.005Z,1.67
2023-02-19T12:32:35.043Z,1.55
2023-02-19T12:39:51.834Z,1.75
2023-02-19T12:42:55.775Z,2.00
2023-02-19T12:46:21.849Z,1.70
2023-02-19T12:49:05.870Z,2.17
2023-02-19T12:51:45.706Z,2.47
2023-02-19T12:54:15.156Z,2.10
2023-02-19T13:01:13.112Z,2.58
2023-02-19T13:12:49.844Z,1.90
2023-02-19T13:15:42.275Z,2.00
2023-02-19T13:18:20.369Z,2.25
2023-02-19T13:20:48.931Z,2.22
2023-02-19T13:27:49.536Z,2.30
2023-02-19T13:30:26.558Z,2.40
2023-02-19T13:37:35.221Z,1.92
2023-02-19T13:44:33.016Z,1.70
2023-02-19T13:47:51.507Z,1.70
2023-02-19T13:50:26.418Z,1.20
2023-02-19T13:57:47.031Z,2.05
2023-02-19T14:00:51.902Z,1.98
2023-02-19T14:04:48.028Z,1.90
2023-02-19T14:07:15.314Z,1.95
2023-02-19T14:09:45.517Z,2.05
2023-02-19T14:12:16.035Z,1.90
2023-02-19T14:14:55.833Z,2.30
2023-02-19T14:17:42.585Z,1.70
2023-02-19T14:20:09.936Z,1.92
2023-02-19T14:22:52.053Z,1.60
2023-02-19T14:30:19.895Z,1.30
2023-02-19T14:40:21.226Z,1.25
2023-02-19T14:42:53.313Z,1.38
2023-02-19T14:50:32.340Z,1.02
2023-02-19T14:53:04.295Z,1.38
2023-02-19T14:55:50.090Z,1.10
2023-02-19T14:58:40.648Z,1.00
2023-02-19T15:01:46.428Z,1.42
2023-02-19T15:22:48.629Z,0.85
2023-02-19T15:25:49.427Z,1.30
2023-02-19T15:32:55.702Z,1.30
2023-02-19T15:35:25.121Z,0.88
2023-02-19T15:37:55.119Z,1.08
2023-02-19T15:44:51.712Z,1.58
2023-02-19T15:47:51.335Z,1.02
2023-02-19T15:50:29.553Z,1.38
2023-02-19T15:53:00.586Z,1.40
2023-02-19T15:59:45.827Z,1.80
2023-02-19T16:02:15.445Z,1.65
2023-02-19T16:04:50.030Z,2.03
2023-02-19T16:08:12.299Z,2.15
2023-02-19T16:10:39.729Z,2.35
2023-02-19T16:13:08.505Z,2.17
2023-02-19T16:15:36.289Z,1.75
2023-02-19T16:18:15.460Z,1.88
2023-02-19T16:26:00.000Z,2.13
2023-02-19T16:28:31.078Z,1.80
2023-02-19T16:31:21.161Z,2.15
2023-02-19T16:38:34.376Z,1.42
2023-02-19T16:42:14.552Z,0.75
2023-02-19T16:44:42.290Z,1.02
2023-02-19T16:47:51.368Z,0.90
2023-02-19T16:54:57.696Z,0.50
2023-02-19T16:57:43.603Z,0.80
2023-02-19T17:50:34.407Z,1.23
2023-02-19T20:51:12.576Z,2.78
2023-02-19T21:33:39.607Z,1.38
2023-02-19T21:40:30.125Z,2.58
2023-02-19T21:42:58.054Z,2.38
2023-02-19T21:45:25.639Z,2.78
2023-02-19T21:47:56.378Z,2.40
2023-02-19T21:50:24.055Z,2.15
2023-02-19T21:52:51.465Z,2.10
2023-02-19T21:55:19.082Z,2.47
2023-02-19T21:57:49.680Z,3.25
2023-02-19T22:00:17.769Z,2.75
2023-02-19T22:02:45.390Z,2.55
2023-02-19T22:05:15.269Z,2.70
2023-02-19T22:07:42.914Z,2.78
2023-02-19T22:10:10.678Z,2.80
2023-02-19T22:12:38.173Z,3.17
2023-02-19T22:15:05.862Z,2.55
2023-02-19T22:18:53.800Z,3.38
